PLZ weather

Port Elizabeth Airport
Port Elizabeth, Eastern Cape, South Africa

Public forecast

Using degrees Celsius for public forecast. Weather courtesy of forecast.io.

Current aviation weather report (METAR) for Port Elizabeth Airport

Retrieved 2020/04/09 06:00 UTC (50 minutes ago):

FAPE 090600Z 06016KT CAVOK 18/14 Q1020 NOSIG

Aviation forecast (TAF) for Port Elizabeth Airport

Retrieved 2020/04/09 06:09 UTC (41 minutes ago):

TAF FAPE 090400Z 0906/1006 06018KT CAVOK TX26/0912Z TN16/1003Z PROB40 TEMPO 0906/0909 06020G30KT BECMG 0912/0914 07014KT BECMG 1001/1003 27006KT